Time;durP1;ratioP1;P1;durP2;ratioP2;P2;SDS_P1;SDS_P2;PMS_P1;PMS_P2;Temp;Humidity;BMP_temperature;BMP_pressure;BME280_temperature;BME280_humidity;BME280_pressure;Samples;Min_cycle;Max_cycle;Signal;HPM_P1;HPM_P2
2022/03/14 00:00:44;;;;;;;9.25;5.88;;;7.80;24.20;;;;;;4954997;29;20019;-71
2022/03/14 00:03:12;;;;;;;9.65;5.53;;;7.70;24.30;;;;;;4952792;29;20115;-72
2022/03/14 00:05:38;;;;;;;11.98;7.18;;;7.70;24.40;;;;;;4953289;29;20118;-72
2022/03/14 00:08:05;;;;;;;9.43;5.97;;;7.60;24.60;;;;;;4969270;28;20047;-73
2022/03/14 00:10:32;;;;;;;10.45;6.20;;;7.60;24.50;;;;;;4954580;28;20020;-72
2022/03/14 00:12:58;;;;;;;10.38;5.85;;;7.50;24.50;;;;;;4954696;28;20468;-72
2022/03/14 00:15:30;;;;;;;11.45;6.18;;;7.50;24.50;;;;;;4954734;28;20080;-74
2022/03/14 00:17:56;;;;;;;10.88;6.43;;;7.40;24.60;;;;;;4954672;28;20437;-71
2022/03/14 00:20:22;;;;;;;10.35;5.95;;;7.40;24.80;;;;;;4954207;28;20095;-73
2022/03/14 00:22:48;;;;;;;9.52;6.25;;;7.40;24.60;;;;;;4954628;28;20110;-71
2022/03/14 00:25:14;;;;;;;13.20;6.78;;;7.40;24.90;;;;;;4953318;29;20035;-73
2022/03/14 00:27:41;;;;;;;19.50;8.43;;;7.30;25.00;;;;;;4954428;28;20114;-73
2022/03/14 00:30:11;;;;;;;19.02;8.05;;;7.30;25.30;;;;;;4953345;29;20481;-72
2022/03/14 00:32:38;;;;;;;11.60;6.90;;;7.20;25.20;;;;;;4953243;29;20033;-73
2022/03/14 00:35:05;;;;;;;13.52;7.50;;;7.20;25.10;;;;;;4949914;29;20060;-71
2022/03/14 00:37:31;;;;;;;13.55;7.65;;;7.10;25.40;;;;;;4934133;29;20032;-73
2022/03/14 00:39:57;;;;;;;10.88;6.18;;;7.10;25.50;;;;;;4949711;29;20027;-74
2022/03/14 00:42:23;;;;;;;10.88;6.60;;;7.00;25.70;;;;;;4954248;28;20594;-72
2022/03/14 00:44:50;;;;;;;14.23;7.15;;;7.00;26.10;;;;;;4954381;28;20488;-73
2022/03/14 00:47:17;;;;;;;15.85;7.75;;;6.90;26.30;;;;;;4954447;28;20038;-72
2022/03/14 00:49:44;;;;;;;13.68;6.43;;;6.90;26.60;;;;;;4953048;29;20031;-73
2022/03/14 00:52:11;;;;;;;11.52;6.22;;;6.80;26.50;;;;;;4954379;28;20051;-73
2022/03/14 00:54:37;;;;;;;11.90;6.75;;;6.70;26.50;;;;;;4970836;28;20110;-73
2022/03/14 00:57:04;;;;;;;11.82;6.07;;;6.70;26.80;;;;;;4956573;29;20130;-74
2022/03/14 00:59:30;;;;;;;13.02;6.78;;;6.60;27.10;;;;;;4957628;28;20419;-72
2022/03/14 01:01:56;;;;;;;14.98;7.03;;;6.50;27.50;;;;;;4957438;28;20023;-72
2022/03/14 01:04:22;;;;;;;14.02;7.50;;;6.50;27.60;;;;;;4972301;28;20114;-71
2022/03/14 01:06:48;;;;;;;19.70;8.00;;;6.40;28.50;;;;;;4957783;29;20386;-72
2022/03/14 01:09:14;;;;;;;16.70;7.78;;;6.40;28.80;;;;;;4957758;28;20031;-73
2022/03/14 01:11:41;;;;;;;12.57;7.93;;;6.30;29.70;;;;;;4957741;28;20031;-71
2022/03/14 01:14:08;;;;;;;12.90;7.13;;;6.30;29.50;;;;;;4957657;28;20030;-72
2022/03/14 01:16:34;;;;;;;12.48;6.93;;;6.30;29.10;;;;;;4957680;28;20028;-72
2022/03/14 01:19:00;;;;;;;12.52;6.95;;;6.30;28.80;;;;;;4957504;28;20027;-71
2022/03/14 01:21:30;;;;;;;13.02;7.00;;;6.30;28.90;;;;;;4957908;28;20027;-72
2022/03/14 01:23:57;;;;;;;13.98;7.47;;;6.20;28.90;;;;;;4956842;28;20039;-74
2022/03/14 01:26:23;;;;;;;13.60;7.57;;;6.20;28.90;;;;;;4957533;28;20042;-73
2022/03/14 01:28:49;;;;;;;11.90;7.00;;;6.20;29.10;;;;;;4957508;28;20022;-71
2022/03/14 01:31:18;;;;;;;14.30;7.25;;;6.10;29.00;;;;;;4956114;29;20118;-72
2022/03/14 01:33:44;;;;;;;15.07;7.95;;;6.10;29.00;;;;;;4957005;28;20023;-72
2022/03/14 01:36:10;;;;;;;23.33;8.32;;;6.00;29.10;;;;;;4957208;28;20082;-72
2022/03/14 01:38:37;;;;;;;16.98;7.95;;;6.00;29.70;;;;;;4956799;28;20031;-71
2022/03/14 01:41:03;;;;;;;14.32;7.20;;;6.00;29.50;;;;;;4957188;28;20028;-72
2022/03/14 01:43:29;;;;;;;13.50;7.75;;;5.90;29.10;;;;;;4957107;28;20441;-71
2022/03/14 01:45:58;;;;;;;14.55;7.68;;;5.90;29.20;;;;;;4972205;28;20066;-72
2022/03/14 01:48:25;;;;;;;14.02;7.40;;;5.80;29.30;;;;;;4966361;28;20035;-72
2022/03/14 01:50:52;;;;;;;13.30;7.55;;;5.80;29.70;;;;;;4956784;28;20031;-71
2022/03/14 01:53:19;;;;;;;13.27;7.75;;;5.70;29.50;;;;;;4956930;28;20519;-72
2022/03/14 01:55:47;;;;;;;13.63;6.93;;;5.70;29.60;;;;;;4940401;28;20020;-72
2022/03/14 01:58:15;;;;;;;12.20;6.50;;;5.60;29.80;;;;;;4937600;29;20043;-72
2022/03/14 02:00:43;;;;;;;13.43;7.18;;;5.60;29.80;;;;;;4937861;29;20020;-73
2022/03/14 02:03:08;;;;;;;14.30;7.65;;;5.50;29.80;;;;;;4937545;29;20034;-71
2022/03/14 02:05:36;;;;;;;18.25;7.53;;;5.50;29.80;;;;;;4937102;29;20389;-71
2022/03/14 02:08:05;;;;;;;12.30;7.38;;;5.50;30.00;;;;;;4949542;29;20381;-72
2022/03/14 02:10:31;;;;;;;16.90;7.78;;;5.40;30.00;;;;;;4954936;29;20023;-73
2022/03/14 02:12:58;;;;;;;15.80;9.32;;;5.50;30.10;;;;;;4971242;28;20078;-71
2022/03/14 02:15:23;;;;;;;15.20;9.02;;;5.40;30.30;;;;;;4956439;29;20413;-73
2022/03/14 02:17:49;;;;;;;15.57;8.60;;;5.40;30.60;;;;;;4956425;28;20036;-71
2022/03/14 02:20:16;;;;;;;13.20;8.82;;;5.40;30.70;;;;;;4956399;28;20066;-71
2022/03/14 02:22:42;;;;;;;12.45;7.40;;;5.30;30.80;;;;;;4971092;28;20035;-71
2022/03/14 02:25:10;;;;;;;15.10;8.68;;;5.30;30.70;;;;;;4956165;29;20027;-72
2022/03/14 02:27:38;;;;;;;18.05;8.52;;;5.20;31.00;;;;;;4955493;28;20106;-70
2022/03/14 02:30:04;;;;;;;11.88;6.63;;;5.20;31.30;;;;;;4956160;28;20545;-71
2022/03/14 02:32:30;;;;;;;12.52;6.93;;;5.20;30.80;;;;;;4956248;28;20115;-72
2022/03/14 02:34:56;;;;;;;11.65;6.35;;;5.10;30.50;;;;;;4955798;28;20051;-71
2022/03/14 02:37:22;;;;;;;17.48;7.57;;;5.10;30.30;;;;;;4956044;28;20050;-71
2022/03/14 02:39:49;;;;;;;12.40;6.57;;;5.10;30.90;;;;;;4970826;28;20031;-72
2022/03/14 02:42:14;;;;;;;15.82;7.63;;;5.10;30.90;;;;;;4954595;28;20058;-72
2022/03/14 02:44:43;;;;;;;14.20;7.22;;;5.00;31.20;;;;;;4954796;29;20049;-72
2022/03/14 02:47:10;;;;;;;13.50;7.32;;;5.00;31.30;;;;;;4949895;29;20027;-72
2022/03/14 02:49:36;;;;;;;13.35;7.32;;;4.90;31.40;;;;;;4955934;28;20023;-73
2022/03/14 02:52:02;;;;;;;12.30;7.50;;;4.90;31.40;;;;;;4971799;28;20049;-73
2022/03/14 02:54:28;;;;;;;16.42;7.72;;;4.90;31.50;;;;;;4974948;28;20117;-73
2022/03/14 02:56:55;;;;;;;12.77;7.10;;;4.80;31.40;;;;;;4969494;28;20078;-71
2022/03/14 02:59:22;;;;;;;18.38;9.10;;;4.80;31.20;;;;;;4950571;29;20050;-73
2022/03/14 03:01:48;;;;;;;16.55;7.85;;;4.70;31.50;;;;;;4953852;28;20019;-73
2022/03/14 03:04:14;;;;;;;12.45;7.35;;;4.70;31.70;;;;;;4955254;28;20027;-71
2022/03/14 03:06:39;;;;;;;14.15;6.53;;;4.60;31.50;;;;;;4955409;28;20393;-72
2022/03/14 03:09:05;;;;;;;13.40;6.88;;;4.60;31.40;;;;;;4955400;28;20548;-70
2022/03/14 03:11:32;;;;;;;17.55;7.50;;;4.60;31.40;;;;;;4954130;29;20103;-72
2022/03/14 03:13:59;;;;;;;13.95;7.47;;;4.60;31.70;;;;;;4955360;28;20050;-73
2022/03/14 03:16:26;;;;;;;16.15;7.25;;;4.60;31.80;;;;;;4952540;28;20047;-72
2022/03/14 03:18:52;;;;;;;13.68;7.75;;;4.50;31.90;;;;;;4968836;28;20057;-73
2022/03/14 03:21:17;;;;;;;16.55;7.95;;;4.50;33.40;;;;;;4989464;28;20027;-72
2022/03/14 03:23:43;;;;;;;17.83;8.90;;;4.50;33.70;;;;;;4974415;28;20026;-74
2022/03/14 03:26:09;;;;;;;15.52;8.40;;;4.50;35.00;;;;;;4989431;28;20096;-71
2022/03/14 03:28:36;;;;;;;19.60;8.77;;;4.50;34.70;;;;;;4974481;28;20031;-73
2022/03/14 03:31:06;;;;;;;19.33;8.27;;;4.60;34.60;;;;;;4974420;28;20121;-73
2022/03/14 03:33:33;;;;;;;13.80;8.10;;;4.60;34.50;;;;;;4967206;28;20030;-74
2022/03/14 03:35:59;;;;;;;22.73;7.90;;;4.60;33.90;;;;;;4954729;29;20063;-72
2022/03/14 03:38:26;;;;;;;15.13;6.85;;;4.60;33.50;;;;;;4954666;28;20074;-73
2022/03/14 03:40:52;;;;;;;13.98;7.40;;;4.60;33.40;;;;;;4954226;28;20031;-73
2022/03/14 03:43:18;;;;;;;16.90;8.75;;;4.60;33.60;;;;;;4953664;29;20031;-73
2022/03/14 03:45:43;;;;;;;17.02;8.23;;;4.50;33.90;;;;;;4954992;28;20565;-72
2022/03/14 03:48:09;;;;;;;12.68;6.80;;;4.60;34.00;;;;;;4954951;28;20089;-73
2022/03/14 03:50:35;;;;;;;14.20;8.05;;;4.50;33.50;;;;;;4954788;28;20026;-72
2022/03/14 03:53:01;;;;;;;15.75;8.02;;;4.50;33.60;;;;;;4954755;28;20058;-72
2022/03/14 03:55:27;;;;;;;13.65;7.50;;;4.50;34.00;;;;;;4954798;28;20023;-74
2022/03/14 03:57:52;;;;;;;14.75;7.78;;;4.50;34.00;;;;;;4954256;28;20051;-73
2022/03/14 04:00:19;;;;;;;13.95;7.25;;;4.50;34.60;;;;;;4954782;28;20031;-73
2022/03/14 04:02:46;;;;;;;13.63;7.72;;;4.50;34.90;;;;;;4955181;28;20030;-72
2022/03/14 04:05:16;;;;;;;14.82;8.50;;;4.50;34.60;;;;;;4954709;28;20054;-73
2022/03/14 04:07:43;;;;;;;14.52;7.25;;;4.50;35.20;;;;;;4954900;28;20062;-72
2022/03/14 04:10:12;;;;;;;14.75;8.13;;;4.50;35.20;;;;;;4955035;28;20058;-71
2022/03/14 04:12:39;;;;;;;19.85;7.30;;;4.50;35.30;;;;;;4954864;28;20090;-73
2022/03/14 04:15:09;;;;;;;14.25;7.03;;;4.50;35.50;;;;;;4953462;29;20079;-73
2022/03/14 04:17:42;;;;;;;15.02;7.95;;;4.50;35.20;;;;;;4954619;28;20031;-73
2022/03/14 04:20:11;;;;;;;16.13;8.05;;;4.40;35.20;;;;;;4954576;28;20110;-72
2022/03/14 04:22:40;;;;;;;12.38;7.43;;;4.40;35.30;;;;;;4954520;28;20396;-72
2022/03/14 04:25:07;;;;;;;14.25;8.35;;;4.40;35.00;;;;;;4954498;28;20024;-73
2022/03/14 04:27:33;;;;;;;14.65;7.68;;;4.40;34.90;;;;;;4969290;28;20050;-72
2022/03/14 04:29:59;;;;;;;14.90;7.38;;;4.40;35.00;;;;;;4973016;28;20023;-72
2022/03/14 04:32:26;;;;;;;14.02;7.43;;;4.40;35.00;;;;;;4958199;28;20035;-73
2022/03/14 04:34:52;;;;;;;19.17;8.88;;;4.40;35.00;;;;;;4972567;28;20111;-72
2022/03/14 04:37:19;;;;;;;16.75;8.43;;;4.40;35.40;;;;;;4958001;28;20034;-73
2022/03/14 04:39:46;;;;;;;13.93;7.82;;;4.40;35.40;;;;;;4958226;28;20031;-71
2022/03/14 04:42:12;;;;;;;13.93;7.60;;;4.40;35.50;;;;;;4958076;28;20019;-73
2022/03/14 04:44:38;;;;;;;19.63;8.65;;;4.40;35.40;;;;;;4958141;28;20398;-71
2022/03/14 04:47:04;;;;;;;17.95;8.90;;;4.40;36.00;;;;;;4958115;28;20027;-71
2022/03/14 04:49:30;;;;;;;15.52;7.97;;;4.40;36.20;;;;;;4972851;28;20035;-72
2022/03/14 04:51:57;;;;;;;14.32;7.68;;;4.40;36.30;;;;;;4957925;28;20027;-73
2022/03/14 04:54:23;;;;;;;11.95;6.60;;;4.40;36.10;;;;;;4956908;28;20477;-72
2022/03/14 04:56:49;;;;;;;18.95;8.40;;;4.40;35.70;;;;;;4957703;28;20078;-72
2022/03/14 04:59:15;;;;;;;17.60;8.32;;;4.40;35.80;;;;;;4957295;28;20094;-73
2022/03/14 05:01:41;;;;;;;16.70;7.72;;;4.40;35.70;;;;;;4957677;29;20027;-73
2022/03/14 05:04:08;;;;;;;12.50;6.85;;;4.40;35.90;;;;;;4972231;28;20428;-71
2022/03/14 05:06:33;;;;;;;12.50;7.00;;;4.40;36.00;;;;;;4972497;28;20077;-73
2022/03/14 05:09:02;;;;;;;14.05;7.70;;;4.40;36.50;;;;;;4957770;28;20055;-72
2022/03/14 05:11:28;;;;;;;16.88;8.35;;;4.40;36.80;;;;;;4957502;28;20392;-71
2022/03/14 05:13:54;;;;;;;18.70;7.25;;;4.40;36.40;;;;;;4956000;28;20848;-73
2022/03/14 05:16:20;;;;;;;14.60;8.07;;;4.40;36.70;;;;;;4957423;29;20031;-72
2022/03/14 05:18:47;;;;;;;14.13;7.70;;;4.40;36.80;;;;;;4957376;28;20477;-73
2022/03/14 05:21:13;;;;;;;13.68;6.95;;;4.40;36.70;;;;;;4956893;29;20030;-72
2022/03/14 05:23:40;;;;;;;13.65;7.43;;;4.40;36.40;;;;;;4957261;28;20393;-74
2022/03/14 05:26:06;;;;;;;18.88;8.15;;;4.40;36.20;;;;;;4957272;29;20393;-71
2022/03/14 05:28:32;;;;;;;16.63;7.93;;;4.40;36.30;;;;;;4957193;28;20027;-72
2022/03/14 05:30:58;;;;;;;12.70;7.35;;;4.40;36.40;;;;;;4971993;28;20036;-71
2022/03/14 05:33:24;;;;;;;14.57;7.93;;;4.40;36.30;;;;;;4957105;28;20049;-71
2022/03/14 05:35:50;;;;;;;15.48;7.65;;;4.40;36.90;;;;;;4957132;28;20406;-71
2022/03/14 05:38:16;;;;;;;19.58;7.60;;;4.40;36.80;;;;;;4957099;28;20035;-72
2022/03/14 05:40:42;;;;;;;14.93;7.95;;;4.40;36.60;;;;;;4955887;28;20027;-73
2022/03/14 05:43:09;;;;;;;21.52;9.65;;;4.40;36.70;;;;;;4957076;28;20041;-72
2022/03/14 05:45:35;;;;;;;26.58;7.80;;;4.40;37.10;;;;;;4957017;28;20025;-72
2022/03/14 05:48:02;;;;;;;17.48;7.47;;;4.50;37.00;;;;;;4956973;28;20058;-71
2022/03/14 05:50:28;;;;;;;12.77;7.78;;;4.50;36.90;;;;;;4971755;28;20078;-73
2022/03/14 05:52:54;;;;;;;17.40;8.10;;;4.50;36.90;;;;;;4955477;28;20035;-72
2022/03/14 05:55:21;;;;;;;19.33;8.02;;;4.60;37.00;;;;;;4956682;29;20033;-72
2022/03/14 05:57:47;;;;;;;12.93;7.07;;;4.60;37.00;;;;;;4956533;28;20046;-72
2022/03/14 06:00:20;;;;;;;19.15;8.52;;;4.60;37.00;;;;;;4971525;28;20511;-72
2022/03/14 06:02:47;;;;;;;20.47;9.57;;;4.70;37.20;;;;;;4956828;28;20500;-72
2022/03/14 06:05:13;;;;;;;17.05;7.95;;;4.80;38.20;;;;;;4956372;28;20027;-72
2022/03/14 06:07:40;;;;;;;27.80;9.25;;;4.80;38.40;;;;;;4956493;28;20027;-72
2022/03/14 06:10:07;;;;;;;19.15;9.07;;;4.80;38.60;;;;;;4956533;29;20027;-72
2022/03/14 06:12:33;;;;;;;21.65;8.50;;;4.90;38.80;;;;;;4956445;29;20389;-71
2022/03/14 06:15:00;;;;;;;18.95;8.57;;;4.90;38.50;;;;;;4955961;28;20019;-71
2022/03/14 06:17:26;;;;;;;20.45;8.95;;;5.00;38.30;;;;;;4956427;28;20095;-72
2022/03/14 06:19:52;;;;;;;18.38;9.00;;;5.10;38.50;;;;;;4954878;29;20158;-72
2022/03/14 06:22:23;;;;;;;21.02;7.93;;;5.10;38.10;;;;;;4956165;29;20098;-73
2022/03/14 06:24:49;;;;;;;14.00;7.18;;;5.20;37.80;;;;;;4956123;28;20023;-71
2022/03/14 06:27:16;;;;;;;14.20;7.63;;;5.30;37.50;;;;;;4956329;28;20029;-73
2022/03/14 06:29:43;;;;;;;16.70;7.18;;;5.30;37.40;;;;;;4956228;28;20027;-73
2022/03/14 06:32:09;;;;;;;15.93;8.25;;;5.40;37.40;;;;;;4970840;28;20027;-72
2022/03/14 06:34:36;;;;;;;13.98;7.20;;;5.50;37.40;;;;;;4970861;28;20511;-72
2022/03/14 06:37:02;;;;;;;20.08;8.23;;;5.60;37.30;;;;;;4970774;28;20031;-72
2022/03/14 06:39:28;;;;;;;15.73;7.75;;;5.70;37.30;;;;;;4955960;28;20070;-70
2022/03/14 06:41:54;;;;;;;12.38;7.55;;;5.80;37.00;;;;;;4956018;29;20027;-71
2022/03/14 06:44:21;;;;;;;15.27;7.88;;;6.00;36.90;;;;;;4955869;28;20397;-73
2022/03/14 06:46:47;;;;;;;19.80;8.98;;;6.10;36.80;;;;;;4955874;28;20031;-71
2022/03/14 06:49:16;;;;;;;18.95;9.02;;;6.20;36.90;;;;;;4955718;28;20023;-71
2022/03/14 06:51:42;;;;;;;14.10;8.35;;;6.40;37.10;;;;;;4941947;28;20082;-73
2022/03/14 06:54:09;;;;;;;13.10;7.63;;;6.50;37.00;;;;;;4948564;29;20031;-72
2022/03/14 06:56:37;;;;;;;16.30;8.90;;;6.70;36.90;;;;;;4955548;28;20047;-71
2022/03/14 06:59:03;;;;;;;13.15;7.80;;;6.80;36.50;;;;;;4955376;29;20036;-72
2022/03/14 07:01:30;;;;;;;15.23;8.82;;;6.90;36.30;;;;;;4955725;28;20023;-71
2022/03/14 07:03:57;;;;;;;15.63;7.25;;;7.10;36.10;;;;;;4970484;28;20110;-73
2022/03/14 07:06:23;;;;;;;17.20;8.00;;;7.20;35.80;;;;;;4955558;28;20023;-73
2022/03/14 07:08:48;;;;;;;16.13;8.48;;;7.40;35.50;;;;;;4955611;28;20093;-71
2022/03/14 07:11:14;;;;;;;14.27;8.40;;;7.50;35.30;;;;;;4970622;28;20059;-71
2022/03/14 07:13:40;;;;;;;15.50;7.97;;;7.60;34.90;;;;;;4955451;29;20082;-73
2022/03/14 07:16:06;;;;;;;16.10;8.30;;;7.70;34.60;;;;;;4955590;28;20027;-72
2022/03/14 07:18:33;;;;;;;16.50;9.35;;;7.70;34.20;;;;;;4954900;28;20034;-72
2022/03/14 07:20:59;;;;;;;16.02;8.45;;;7.70;34.20;;;;;;4970174;28;20031;-72
2022/03/14 07:23:25;;;;;;;14.82;8.63;;;7.70;34.00;;;;;;4970063;28;20028;-72
2022/03/14 07:25:50;;;;;;;19.75;9.18;;;7.70;34.10;;;;;;4954688;28;20062;-72
2022/03/14 07:28:17;;;;;;;14.55;7.20;;;7.70;34.30;;;;;;4958493;28;20038;-73
2022/03/14 07:30:44;;;;;;;16.17;8.13;;;7.70;34.20;;;;;;4973652;28;20125;-72
2022/03/14 07:33:09;;;;;;;16.60;7.60;;;7.70;34.50;;;;;;4969780;28;20027;-71
2022/03/14 07:35:35;;;;;;;31.75;9.95;;;7.70;34.40;;;;;;4955089;29;20106;-72
2022/03/14 07:38:02;;;;;;;15.57;8.55;;;7.80;34.70;;;;;;4954270;28;20074;-71
2022/03/14 07:40:28;;;;;;;22.90;10.20;;;7.80;34.50;;;;;;4955384;28;20079;-72
2022/03/14 07:42:56;;;;;;;18.08;9.00;;;7.80;34.40;;;;;;4955410;28;20418;-73
2022/03/14 07:45:24;;;;;;;15.65;8.90;;;7.90;34.20;;;;;;4955165;28;20038;-72
2022/03/14 07:47:51;;;;;;;23.13;9.23;;;7.90;34.20;;;;;;4954866;28;20038;-73
2022/03/14 07:50:18;;;;;;;15.68;8.98;;;8.00;34.50;;;;;;4954644;28;20039;-72
2022/03/14 07:52:44;;;;;;;25.33;8.70;;;8.00;34.50;;;;;;4968470;28;20045;-72
2022/03/14 07:55:11;;;;;;;17.73;9.07;;;8.10;34.40;;;;;;4954792;28;20027;-73
2022/03/14 07:57:38;;;;;;;19.38;9.70;;;8.10;34.10;;;;;;4954206;29;20047;-73
2022/03/14 08:00:08;;;;;;;13.43;8.77;;;8.20;33.90;;;;;;4954486;28;20031;-73
2022/03/14 08:02:33;;;;;;;18.70;9.88;;;8.30;33.80;;;;;;4953605;28;20024;-72
2022/03/14 08:04:59;;;;;;;22.95;9.85;;;8.40;34.20;;;;;;4954063;28;20034;-73
2022/03/14 08:07:26;;;;;;;17.35;9.57;;;8.40;34.80;;;;;;4949124;29;20031;-73
2022/03/14 08:09:52;;;;;;;22.55;10.80;;;8.50;34.70;;;;;;4945205;28;20106;-72
2022/03/14 08:12:17;;;;;;;26.52;10.82;;;8.60;34.30;;;;;;4969493;28;20102;-72
2022/03/14 08:14:45;;;;;;;28.83;11.27;;;8.60;34.10;;;;;;4954235;29;20584;-72
2022/03/14 08:17:12;;;;;;;29.20;11.77;;;8.70;33.60;;;;;;4954923;29;20499;-71
2022/03/14 08:19:38;;;;;;;29.73;11.88;;;8.80;33.10;;;;;;4954467;28;20034;-74
2022/03/14 08:22:04;;;;;;;22.42;11.27;;;8.90;32.70;;;;;;4954691;28;20035;-71
2022/03/14 08:24:30;;;;;;;28.27;13.45;;;8.90;32.30;;;;;;4954723;28;20089;-72
2022/03/14 08:26:56;;;;;;;23.95;12.57;;;9.00;32.30;;;;;;4954682;28;20027;-73
2022/03/14 08:29:22;;;;;;;32.25;12.18;;;9.10;31.80;;;;;;4954375;28;20023;-73
2022/03/14 08:31:48;;;;;;;25.52;11.30;;;9.20;31.60;;;;;;4954354;28;20034;-71
2022/03/14 08:34:14;;;;;;;20.02;10.63;;;9.30;31.20;;;;;;4954434;28;20078;-74
2022/03/14 08:36:40;;;;;;;21.63;12.25;;;9.40;31.00;;;;;;4969262;28;20023;-72
2022/03/14 08:39:07;;;;;;;17.13;10.02;;;9.40;30.80;;;;;;4968921;28;20110;-73
2022/03/14 08:41:36;;;;;;;18.48;10.35;;;9.50;30.70;;;;;;4967995;28;20038;-72
2022/03/14 08:44:08;;;;;;;20.52;11.60;;;9.60;30.70;;;;;;4951037;28;20033;-73
2022/03/14 08:46:34;;;;;;;28.67;11.35;;;9.70;30.40;;;;;;4953028;29;20535;-72
2022/03/14 08:49:01;;;;;;;24.50;11.15;;;9.70;29.70;;;;;;4966635;28;20035;-73
2022/03/14 08:51:27;;;;;;;22.48;10.82;;;9.80;29.70;;;;;;4954508;28;20027;-71
2022/03/14 08:53:53;;;;;;;20.15;10.15;;;9.90;29.60;;;;;;4954597;29;20028;-73
2022/03/14 08:56:19;;;;;;;24.98;11.95;;;10.00;29.50;;;;;;4954735;28;20097;-72
2022/03/14 08:58:45;;;;;;;21.67;11.13;;;10.00;29.60;;;;;;4954092;28;20046;-72
2022/03/14 09:01:12;;;;;;;19.85;10.98;;;10.10;29.70;;;;;;4959113;28;20031;-72
2022/03/14 09:03:38;;;;;;;21.60;10.93;;;10.20;29.60;;;;;;4968505;28;20023;-73
2022/03/14 09:06:05;;;;;;;20.52;10.77;;;10.30;29.80;;;;;;4962282;28;20034;-74
2022/03/14 09:08:32;;;;;;;17.83;10.32;;;10.40;29.70;;;;;;4949256;28;20031;-72
2022/03/14 09:11:01;;;;;;;24.02;11.52;;;10.40;29.60;;;;;;4968757;28;20114;-72
2022/03/14 09:13:29;;;;;;;16.58;10.98;;;10.50;29.50;;;;;;4968869;28;20054;-73
2022/03/14 09:15:55;;;;;;;16.73;10.02;;;10.60;29.30;;;;;;4955911;28;20024;-72
2022/03/14 09:18:21;;;;;;;17.60;10.10;;;10.60;29.30;;;;;;4954099;29;20035;-72
2022/03/14 09:20:48;;;;;;;17.45;10.73;;;10.70;29.30;;;;;;4957447;28;20035;-73
2022/03/14 09:23:20;;;;;;;20.30;10.65;;;10.80;29.40;;;;;;4958082;28;20019;-73
2022/03/14 09:25:47;;;;;;;17.10;9.93;;;10.80;29.40;;;;;;4959329;28;20023;-74
2022/03/14 09:28:13;;;;;;;15.48;9.50;;;10.90;29.50;;;;;;4976209;28;20033;-73
2022/03/14 09:30:39;;;;;;;15.30;8.82;;;11.10;29.40;;;;;;4957286;28;20027;-74
2022/03/14 09:33:05;;;;;;;20.65;10.43;;;11.20;29.50;;;;;;4947000;28;20035;-73
2022/03/14 09:35:31;;;;;;;20.30;10.05;;;11.30;29.60;;;;;;4955117;28;20079;-73
2022/03/14 09:37:57;;;;;;;20.05;11.20;;;11.40;29.80;;;;;;4956566;28;20029;-74
2022/03/14 09:40:24;;;;;;;18.77;10.93;;;11.50;30.10;;;;;;4971907;28;20075;-72
2022/03/14 09:42:55;;;;;;;20.55;11.57;;;11.60;30.20;;;;;;4957161;28;20031;-73
2022/03/14 09:45:21;;;;;;;18.73;11.27;;;11.70;30.40;;;;;;4961702;28;20069;-74
2022/03/14 09:47:52;;;;;;;19.88;11.35;;;11.80;30.50;;;;;;4971793;28;20413;-74
2022/03/14 09:50:30;;;;;;;19.63;11.10;;;11.90;30.50;;;;;;4957062;28;20119;-73
2022/03/14 09:52:58;;;;;;;21.67;10.80;;;12.00;30.80;;;;;;4974044;28;20030;-74
2022/03/14 09:55:25;;;;;;;18.88;10.48;;;12.20;30.60;;;;;;4956991;28;20027;-74
2022/03/14 09:57:51;;;;;;;19.67;10.52;;;12.30;30.60;;;;;;4955217;28;20501;-72
2022/03/14 10:00:18;;;;;;;22.58;12.35;;;12.40;30.60;;;;;;4956417;29;20023;-72
2022/03/14 10:02:44;;;;;;;27.73;11.13;;;12.50;30.70;;;;;;4956719;29;20019;-73
2022/03/14 10:05:14;;;;;;;16.45;9.65;;;12.60;30.60;;;;;;4971455;28;20031;-71
2022/03/14 10:07:43;;;;;;;18.70;10.38;;;12.70;30.50;;;;;;4957023;29;20062;-72
2022/03/14 10:10:09;;;;;;;19.27;11.70;;;12.80;30.60;;;;;;4956739;28;20023;-72
2022/03/14 10:12:35;;;;;;;21.08;11.60;;;12.90;30.60;;;;;;4956658;28;20481;-72
2022/03/14 10:15:05;;;;;;;20.13;11.60;;;13.00;30.70;;;;;;4963742;28;20065;-73
2022/03/14 10:17:32;;;;;;;38.75;12.23;;;13.20;31.10;;;;;;4964528;28;20378;-74
2022/03/14 10:20:00;;;;;;;24.52;11.13;;;13.30;30.90;;;;;;4982585;28;20023;-73
2022/03/14 10:22:37;;;;;;;16.27;10.57;;;13.40;30.60;;;;;;4954584;28;20098;-73
2022/03/14 10:25:09;;;;;;;18.27;11.15;;;13.50;30.50;;;;;;4954122;29;20035;-74
2022/03/14 10:27:37;;;;;;;18.23;11.52;;;13.60;30.40;;;;;;4955261;28;20038;-71
2022/03/14 10:30:04;;;;;;;20.48;12.02;;;13.70;30.60;;;;;;4952851;29;20026;-72
2022/03/14 10:32:30;;;;;;;19.25;11.50;;;13.80;30.50;;;;;;4955359;28;20489;-73
2022/03/14 10:35:03;;;;;;;22.17;13.38;;;13.90;30.40;;;;;;4955584;29;20042;-73
2022/03/14 10:37:29;;;;;;;18.45;10.73;;;14.00;30.50;;;;;;4959538;28;20370;-72
2022/03/14 10:40:03;;;;;;;18.60;11.68;;;14.00;30.40;;;;;;4951737;29;20087;-73
2022/03/14 10:42:40;;;;;;;20.38;12.38;;;14.10;30.50;;;;;;4969148;28;20023;-71
2022/03/14 10:45:16;;;;;;;25.25;12.88;;;14.20;30.40;;;;;;4954528;28;20031;-73
2022/03/14 10:47:47;;;;;;;28.80;11.45;;;14.40;30.70;;;;;;4956201;28;20105;-74
2022/03/14 10:50:34;;;;;;;16.15;10.73;;;14.40;30.70;;;;;;4970755;28;20380;-73
2022/03/14 10:53:11;;;;;;;17.60;11.40;;;14.60;30.80;;;;;;4970792;28;20031;-73
2022/03/14 10:55:42;;;;;;;18.60;11.95;;;14.70;31.00;;;;;;4961105;28;20480;-72
2022/03/14 10:58:09;;;;;;;19.02;12.15;;;14.70;31.20;;;;;;4961608;28;20074;-72
2022/03/14 11:00:51;;;;;;;15.27;10.00;;;14.80;31.00;;;;;;4950729;28;20086;-71
2022/03/14 11:03:28;;;;;;;17.23;10.88;;;14.90;31.10;;;;;;4950748;29;20079;-73
2022/03/14 11:06:00;;;;;;;16.73;10.68;;;15.00;31.50;;;;;;4936370;29;20035;-72
2022/03/14 11:08:37;;;;;;;17.20;10.80;;;15.10;32.10;;;;;;4943958;29;20027;-74
2022/03/14 11:11:14;;;;;;;15.02;9.85;;;15.30;33.50;;;;;;4948078;29;20024;-73
2022/03/14 11:13:44;;;;;;;13.93;9.85;;;15.40;33.50;;;;;;4966238;28;20440;-74
2022/03/14 11:16:29;;;;;;;14.50;10.10;;;15.50;34.20;;;;;;4953710;28;20035;-73
2022/03/14 11:18:56;;;;;;;11.15;8.35;;;15.70;33.90;;;;;;4953928;29;20031;-72
2022/03/14 11:21:24;;;;;;;13.18;9.73;;;15.90;33.90;;;;;;4941523;28;20091;-71
2022/03/14 11:23:52;;;;;;;17.33;9.88;;;16.00;35.30;;;;;;4948268;29;20083;-72
2022/03/14 11:26:21;;;;;;;13.52;9.77;;;16.20;35.10;;;;;;4966216;28;20034;-72
2022/03/14 11:28:49;;;;;;;14.40;8.88;;;16.30;34.80;;;;;;4956366;28;20070;-72
2022/03/14 11:31:17;;;;;;;10.57;8.15;;;16.40;34.40;;;;;;4946313;28;20042;-72
2022/03/14 11:33:43;;;;;;;20.77;9.48;;;16.50;34.20;;;;;;4942724;28;20430;-73
2022/03/14 11:36:09;;;;;;;16.38;9.07;;;16.60;34.10;;;;;;4952890;28;20023;-73
2022/03/14 11:38:35;;;;;;;12.05;8.57;;;16.80;34.00;;;;;;4966100;28;20491;-72
2022/03/14 11:41:02;;;;;;;12.50;8.02;;;16.90;34.60;;;;;;4954414;28;20419;-72
2022/03/14 11:43:28;;;;;;;13.43;8.68;;;17.10;33.80;;;;;;4945783;29;20389;-71
2022/03/14 11:45:58;;;;;;;14.68;7.90;;;17.20;33.60;;;;;;4949417;29;20452;-72
2022/03/14 11:48:34;;;;;;;11.13;7.88;;;17.40;33.20;;;;;;4953945;28;20030;-71
2022/03/14 11:51:03;;;;;;;16.27;9.65;;;17.50;32.90;;;;;;4956617;28;20031;-73
2022/03/14 11:53:30;;;;;;;16.38;9.00;;;17.70;32.80;;;;;;4953901;28;20106;-72
2022/03/14 11:56:08;;;;;;;15.07;8.15;;;17.70;32.50;;;;;;4954116;28;20063;-73
2022/03/14 11:58:36;;;;;;;13.00;9.65;;;17.80;32.40;;;;;;4953300;28;20131;-72
2022/03/14 12:01:23;;;;;;;17.52;9.40;;;17.80;32.30;;;;;;4953131;28;20055;-73
2022/03/14 12:04:00;;;;;;;15.93;9.43;;;17.90;32.20;;;;;;4953989;28;20114;-72
2022/03/14 12:06:47;;;;;;;16.88;8.50;;;17.90;32.30;;;;;;4953496;28;20070;-71
2022/03/14 12:09:27;;;;;;;13.70;7.78;;;17.80;32.20;;;;;;4953292;28;20123;-71
2022/03/14 12:11:58;;;;;;;9.93;7.18;;;17.80;32.10;;;;;;4951348;29;20027;-71
2022/03/14 12:14:42;;;;;;;12.77;8.35;;;17.80;32.10;;;;;;4953862;28;20046;-71
2022/03/14 12:17:14;;;;;;;17.40;9.15;;;17.70;31.90;;;;;;4961830;28;20027;-72
2022/03/14 12:19:44;;;;;;;13.07;9.00;;;17.60;32.30;;;;;;4940474;29;20027;-70
2022/03/14 12:22:35;;;;;;;14.45;9.55;;;17.60;32.30;;;;;;4952629;28;20067;-72
2022/03/14 12:25:05;;;;;;;16.23;10.43;;;17.50;32.30;;;;;;4949969;29;20024;-72
2022/03/14 12:27:37;;;;;;;14.32;9.80;;;17.50;32.30;;;;;;4950966;28;20024;-71
2022/03/14 12:30:06;;;;;;;11.35;7.68;;;17.50;32.40;;;;;;4944816;29;20113;-72
2022/03/14 12:32:41;;;;;;;12.18;9.10;;;17.50;32.40;;;;;;4953586;28;20039;-71
2022/03/14 12:35:27;;;;;;;15.02;9.18;;;17.50;32.40;;;;;;4955661;28;20077;-72
2022/03/14 12:38:15;;;;;;;14.73;8.88;;;17.50;32.40;;;;;;4949544;28;20119;-72
2022/03/14 12:40:43;;;;;;;10.98;7.70;;;17.60;32.30;;;;;;4953438;29;20023;-71
2022/03/14 12:43:12;;;;;;;14.45;8.98;;;17.60;32.30;;;;;;4953941;29;20380;-70